sensor_id;sensor_type;location;lat;lon;timestamp;pressure;altitude;pressure_sealevel;temperature;humidity
21433;BME280;18592;49.708;10.900;2023-02-14T00:01:07;100674.19;;;6.45;57.60
21433;BME280;18592;49.708;10.900;2023-02-14T00:03:09;100671.13;;;6.48;57.60
21433;BME280;18592;49.708;10.900;2023-02-14T00:05:10;100669.59;;;6.46;57.61
21433;BME280;18592;49.708;10.900;2023-02-14T00:07:12;100674.69;;;6.49;57.72
21433;BME280;18592;49.708;10.900;2023-02-14T00:09:16;100665.72;;;6.48;57.70
21433;BME280;18592;49.708;10.900;2023-02-14T00:11:18;100669.78;;;6.52;57.54
21433;BME280;18592;49.708;10.900;2023-02-14T00:13:23;100667.06;;;6.52;57.58
21433;BME280;18592;49.708;10.900;2023-02-14T00:15:28;100667.72;;;6.54;57.45
21433;BME280;18592;49.708;10.900;2023-02-14T00:17:32;100668.41;;;6.56;57.40
21433;BME280;18592;49.708;10.900;2023-02-14T00:19:37;100665.69;;;6.56;57.45
21433;BME280;18592;49.708;10.900;2023-02-14T00:21:42;100669.44;;;6.55;57.72
21433;BME280;18592;49.708;10.900;2023-02-14T00:23:44;100672.81;;;6.57;57.76
21433;BME280;18592;49.708;10.900;2023-02-14T00:25:45;100668.41;;;6.56;57.79
21433;BME280;18592;49.708;10.900;2023-02-14T00:27:49;100663.84;;;6.57;57.44
21433;BME280;18592;49.708;10.900;2023-02-14T00:29:51;100668.25;;;6.58;57.42
21433;BME280;18592;49.708;10.900;2023-02-14T00:31:54;100660.78;;;6.60;57.29
21433;BME280;18592;49.708;10.900;2023-02-14T00:33:57;100650.94;;;6.59;57.50
21433;BME280;18592;49.708;10.900;2023-02-14T00:36:06;100661.78;;;6.59;57.32
21433;BME280;18592;49.708;10.900;2023-02-14T00:38:10;100662.63;;;6.59;57.73
21433;BME280;18592;49.708;10.900;2023-02-14T00:40:18;100656.22;;;6.60;57.41
21433;BME280;18592;49.708;10.900;2023-02-14T00:42:23;100655.34;;;6.60;57.31
21433;BME280;18592;49.708;10.900;2023-02-14T00:44:24;100658.94;;;6.60;57.49
21433;BME280;18592;49.708;10.900;2023-02-14T00:46:27;100659.75;;;6.61;57.64
21433;BME280;18592;49.708;10.900;2023-02-14T00:48:29;100661.63;;;6.60;57.31
21433;BME280;18592;49.708;10.900;2023-02-14T00:50:32;100669.56;;;6.62;58.05
21433;BME280;18592;49.708;10.900;2023-02-14T00:52:36;100664.34;;;6.60;57.75
21433;BME280;18592;49.708;10.900;2023-02-14T00:54:38;100667.72;;;6.62;57.39
21433;BME280;18592;49.708;10.900;2023-02-14T00:56:40;100666.88;;;6.62;57.33
21433;BME280;18592;49.708;10.900;2023-02-14T00:58:43;100668.72;;;6.61;57.56
21433;BME280;18592;49.708;10.900;2023-02-14T01:00:45;100669.56;;;6.62;57.35
21433;BME280;18592;49.708;10.900;2023-02-14T01:02:46;100679.22;;;6.64;57.32
21433;BME280;18592;49.708;10.900;2023-02-14T01:04:48;100668.56;;;6.63;57.36
21433;BME280;18592;49.708;10.900;2023-02-14T01:06:50;100672.28;;;6.62;57.50
21433;BME280;18592;49.708;10.900;2023-02-14T01:08:53;100666.88;;;6.62;57.50
21433;BME280;18592;49.708;10.900;2023-02-14T01:10:55;100678.56;;;6.62;57.68
21433;BME280;18592;49.708;10.900;2023-02-14T01:13:03;100673.13;;;6.62;57.74
21433;BME280;18592;49.708;10.900;2023-02-14T01:15:05;100674.00;;;6.63;57.56
21433;BME280;18592;49.708;10.900;2023-02-14T01:17:09;100676.50;;;6.64;57.49
21433;BME280;18592;49.708;10.900;2023-02-14T01:19:11;100673.63;;;6.66;57.46
21433;BME280;18592;49.708;10.900;2023-02-14T01:21:28;100662.78;;;6.66;57.40
21433;BME280;18592;49.708;10.900;2023-02-14T01:23:30;100661.75;;;6.67;57.50
21433;BME280;18592;49.708;10.900;2023-02-14T01:25:39;100662.78;;;6.66;57.44
21433;BME280;18592;49.708;10.900;2023-02-14T01:27:40;100667.38;;;6.65;57.26
21433;BME280;18592;49.708;10.900;2023-02-14T01:29:44;100663.81;;;6.65;57.35
21433;BME280;18592;49.708;10.900;2023-02-14T01:31:47;100661.75;;;6.67;57.38
21433;BME280;18592;49.708;10.900;2023-02-14T01:33:51;100664.66;;;6.65;57.23
21433;BME280;18592;49.708;10.900;2023-02-14T01:35:53;100657.34;;;6.66;57.23
21433;BME280;18592;49.708;10.900;2023-02-14T01:37:55;100652.78;;;6.66;57.50
21433;BME280;18592;49.708;10.900;2023-02-14T01:39:56;100654.50;;;6.67;57.30
21433;BME280;18592;49.708;10.900;2023-02-14T01:41:58;100654.66;;;6.66;57.41
21433;BME280;18592;49.708;10.900;2023-02-14T01:44:03;100654.84;;;6.64;57.43
21433;BME280;18592;49.708;10.900;2023-02-14T01:46:05;100660.25;;;6.64;57.23
21433;BME280;18592;49.708;10.900;2023-02-14T01:48:07;100658.56;;;6.63;57.49
21433;BME280;18592;49.708;10.900;2023-02-14T01:50:14;100665.00;;;6.62;57.46
21433;BME280;18592;49.708;10.900;2023-02-14T01:52:21;100669.38;;;6.63;57.56
21433;BME280;18592;49.708;10.900;2023-02-14T01:54:26;100659.41;;;6.64;57.39
21433;BME280;18592;49.708;10.900;2023-02-14T01:56:37;100662.97;;;6.64;57.46
21433;BME280;18592;49.708;10.900;2023-02-14T01:58:43;100661.09;;;6.65;57.44
21433;BME280;18592;49.708;10.900;2023-02-14T02:00:46;100664.81;;;6.64;57.64
21433;BME280;18592;49.708;10.900;2023-02-14T02:02:58;100658.56;;;6.63;57.34
21433;BME280;18592;49.708;10.900;2023-02-14T02:05:00;100660.25;;;6.64;57.28
21433;BME280;18592;49.708;10.900;2023-02-14T02:07:06;100662.28;;;6.62;57.32
21433;BME280;18592;49.708;10.900;2023-02-14T02:09:11;100664.81;;;6.64;57.51
21433;BME280;18592;49.708;10.900;2023-02-14T02:11:17;100660.59;;;6.61;57.55
21433;BME280;18592;49.708;10.900;2023-02-14T02:13:21;100663.16;;;6.63;57.49
21433;BME280;18592;49.708;10.900;2023-02-14T02:15:31;100660.44;;;6.63;57.48
21433;BME280;18592;49.708;10.900;2023-02-14T02:20:13;100644.69;;;6.58;57.35
21433;BME280;18592;49.708;10.900;2023-02-14T02:36:51;100628.78;;;6.55;57.56
21433;BME280;18592;49.708;10.900;2023-02-14T02:39:22;100632.50;;;6.54;57.66
21433;BME280;18592;49.708;10.900;2023-02-14T02:46:04;100639.31;;;6.50;57.34
21433;BME280;18592;49.708;10.900;2023-02-14T02:48:34;100637.28;;;6.52;57.52
21433;BME280;18592;49.708;10.900;2023-02-14T02:50:50;100642.69;;;6.52;57.29
21433;BME280;18592;49.708;10.900;2023-02-14T02:53:32;100641.84;;;6.52;57.51
21433;BME280;18592;49.708;10.900;2023-02-14T02:55:56;100651.16;;;6.49;57.59
21433;BME280;18592;49.708;10.900;2023-02-14T02:58:21;100649.09;;;6.51;57.52
21433;BME280;18592;49.708;10.900;2023-02-14T03:00:25;100653.84;;;6.49;57.67
21433;BME280;18592;49.708;10.900;2023-02-14T03:02:31;100645.72;;;6.49;57.86
21433;BME280;18592;49.708;10.900;2023-02-14T03:04:57;100642.84;;;6.51;57.59
21433;BME280;18592;49.708;10.900;2023-02-14T03:07:05;100648.44;;;6.49;57.50
21433;BME280;18592;49.708;10.900;2023-02-14T03:11:31;100652.84;;;6.50;57.60
21433;BME280;18592;49.708;10.900;2023-02-14T03:13:41;100644.72;;;6.50;57.77
21433;BME280;18592;49.708;10.900;2023-02-14T03:23:17;100654.19;;;6.46;57.82
21433;BME280;18592;49.708;10.900;2023-02-14T03:25:27;100646.06;;;6.46;57.40
21433;BME280;18592;49.708;10.900;2023-02-14T03:27:38;100655.91;;;6.47;57.46
21433;BME280;18592;49.708;10.900;2023-02-14T03:32:38;100651.84;;;6.43;57.58
21433;BME280;18592;49.708;10.900;2023-02-14T03:34:53;100654.38;;;6.45;57.44
21433;BME280;18592;49.708;10.900;2023-02-14T03:37:08;100653.53;;;6.44;57.59
21433;BME280;18592;49.708;10.900;2023-02-14T03:39:17;100647.44;;;6.42;57.60
21433;BME280;18592;49.708;10.900;2023-02-14T03:41:25;100645.56;;;6.43;57.95
21433;BME280;18592;49.708;10.900;2023-02-14T03:43:33;100653.88;;;6.41;57.96
21433;BME280;18592;49.708;10.900;2023-02-14T03:47:43;100653.88;;;6.41;57.74
21433;BME280;18592;49.708;10.900;2023-02-14T03:49:50;100654.88;;;6.40;57.86
21433;BME280;18592;49.708;10.900;2023-02-14T03:51:55;100656.59;;;6.41;57.65
21433;BME280;18592;49.708;10.900;2023-02-14T03:53:59;100657.09;;;6.36;57.88
21433;BME280;18592;49.708;10.900;2023-02-14T03:56:11;100657.09;;;6.36;57.81
21433;BME280;18592;49.708;10.900;2023-02-14T03:58:24;100659.63;;;6.38;57.80
21433;BME280;18592;49.708;10.900;2023-02-14T04:00:29;100652.16;;;6.40;57.83
21433;BME280;18592;49.708;10.900;2023-02-14T04:02:38;100655.06;;;6.38;57.62
21433;BME280;18592;49.708;10.900;2023-02-14T04:04:44;100652.88;;;6.42;57.97
21433;BME280;18592;49.708;10.900;2023-02-14T04:06:46;100649.31;;;6.42;57.60
21433;BME280;18592;49.708;10.900;2023-02-14T04:08:48;100648.47;;;6.41;57.62
21433;BME280;18592;49.708;10.900;2023-02-14T04:10:51;100646.75;;;6.40;57.78
21433;BME280;18592;49.708;10.900;2023-02-14T04:12:53;100651.16;;;6.41;57.96
21433;BME280;18592;49.708;10.900;2023-02-14T04:14:54;100656.41;;;6.43;57.83
21433;BME280;18592;49.708;10.900;2023-02-14T04:16:56;100652.69;;;6.44;57.89
21433;BME280;18592;49.708;10.900;2023-02-14T04:19:16;100651.16;;;6.41;57.96
21433;BME280;18592;49.708;10.900;2023-02-14T04:21:24;100652.16;;;6.40;57.81
21433;BME280;18592;49.708;10.900;2023-02-14T04:23:26;100655.56;;;6.42;57.22
21433;BME280;18592;49.708;10.900;2023-02-14T04:25:28;100659.28;;;6.41;57.91
21433;BME280;18592;49.708;10.900;2023-02-14T04:27:29;100651.16;;;6.41;57.54
21433;BME280;18592;49.708;10.900;2023-02-14T04:29:31;100653.03;;;6.40;57.87
21433;BME280;18592;49.708;10.900;2023-02-14T04:31:32;100644.03;;;6.40;57.70
21433;BME280;18592;49.708;10.900;2023-02-14T04:33:34;100656.94;;;6.38;58.01
21433;BME280;18592;49.708;10.900;2023-02-14T04:35:36;100650.31;;;6.40;57.63
21433;BME280;18592;49.708;10.900;2023-02-14T04:37:39;100644.22;;;6.38;57.65
21433;BME280;18592;49.708;10.900;2023-02-14T04:39:41;100654.88;;;6.40;57.77
21433;BME280;18592;49.708;10.900;2023-02-14T04:41:43;100644.03;;;6.40;57.65
21433;BME280;18592;49.708;10.900;2023-02-14T04:43:45;100643.88;;;6.42;57.99
21433;BME280;18592;49.708;10.900;2023-02-14T04:45:46;100640.34;;;6.41;57.29
21433;BME280;18592;49.708;10.900;2023-02-14T04:47:48;100639.66;;;6.39;57.74
21433;BME280;18592;49.708;10.900;2023-02-14T04:49:52;100636.09;;;6.38;57.89
21433;BME280;18592;49.708;10.900;2023-02-14T04:51:54;100630.03;;;6.36;57.79
21433;BME280;18592;49.708;10.900;2023-02-14T04:53:58;100630.88;;;6.37;58.17
21433;BME280;18592;49.708;10.900;2023-02-14T04:56:00;100630.88;;;6.37;57.99
21433;BME280;18592;49.708;10.900;2023-02-14T04:58:06;100625.47;;;6.37;58.10
21433;BME280;18592;49.708;10.900;2023-02-14T05:00:08;100620.19;;;6.35;57.94
21433;BME280;18592;49.708;10.900;2023-02-14T05:02:10;100617.34;;;6.37;57.95
21433;BME280;18592;49.708;10.900;2023-02-14T05:04:12;100618.34;;;6.36;57.91
21433;BME280;18592;49.708;10.900;2023-02-14T05:06:13;100616.63;;;6.35;58.02
21433;BME280;18592;49.708;10.900;2023-02-14T05:08:15;100612.06;;;6.35;57.69
21433;BME280;18592;49.708;10.900;2023-02-14T05:10:17;100616.47;;;6.36;57.66
21433;BME280;18592;49.708;10.900;2023-02-14T05:12:18;100614.97;;;6.34;57.67
21433;BME280;18592;49.708;10.900;2023-02-14T05:14:20;100616.81;;;6.33;57.96
21433;BME280;18592;49.708;10.900;2023-02-14T05:16:22;100621.22;;;6.34;57.64
21433;BME280;18592;49.708;10.900;2023-02-14T05:18:24;100620.38;;;6.34;57.88
21433;BME280;18592;49.708;10.900;2023-02-14T05:20:27;100616.63;;;6.35;57.90
21433;BME280;18592;49.708;10.900;2023-02-14T05:22:29;100618.69;;;6.33;58.06
21433;BME280;18592;49.708;10.900;2023-02-14T05:24:31;100613.25;;;6.33;57.72
21433;BME280;18592;49.708;10.900;2023-02-14T05:26:33;100617.66;;;6.34;57.84
21433;BME280;18592;49.708;10.900;2023-02-14T05:28:35;100622.91;;;6.35;57.50
21433;BME280;18592;49.708;10.900;2023-02-14T05:30:37;100612.91;;;6.36;57.67
21433;BME280;18592;49.708;10.900;2023-02-14T05:32:39;100616.81;;;6.33;57.45
21433;BME280;18592;49.708;10.900;2023-02-14T05:34:40;100615.97;;;6.33;57.69
21433;BME280;18592;49.708;10.900;2023-02-14T05:36:45;100617.00;;;6.32;57.60
21433;BME280;18592;49.708;10.900;2023-02-14T05:38:46;100621.56;;;6.31;57.69
21433;BME280;18592;49.708;10.900;2023-02-14T05:40:48;100617.34;;;6.29;58.07
21433;BME280;18592;49.708;10.900;2023-02-14T05:42:51;100616.50;;;6.28;57.73
21433;BME280;18592;49.708;10.900;2023-02-14T05:44:52;100605.84;;;6.27;57.79
21433;BME280;18592;49.708;10.900;2023-02-14T05:46:57;100602.44;;;6.25;58.03
21433;BME280;18592;49.708;10.900;2023-02-14T05:49:02;100600.59;;;6.25;57.91
21433;BME280;18592;49.708;10.900;2023-02-14T05:51:06;100597.72;;;6.27;57.75
21433;BME280;18592;49.708;10.900;2023-02-14T05:53:08;100596.03;;;6.26;57.92
21433;BME280;18592;49.708;10.900;2023-02-14T05:55:10;100600.59;;;6.25;57.56
21433;BME280;18592;49.708;10.900;2023-02-14T05:57:12;100612.47;;;6.24;57.84
21433;BME280;18592;49.708;10.900;2023-02-14T05:59:13;100607.84;;;6.25;58.01
21433;BME280;18592;49.708;10.900;2023-02-14T06:01:15;100605.16;;;6.25;57.80
21433;BME280;18592;49.708;10.900;2023-02-14T06:03:17;100610.75;;;6.23;57.84
21433;BME280;18592;49.708;10.900;2023-02-14T06:05:18;100608.91;;;6.24;58.03
21433;BME280;18592;49.708;10.900;2023-02-14T06:07:20;100606.34;;;6.22;57.89
21433;BME280;18592;49.708;10.900;2023-02-14T06:09:22;100601.97;;;6.21;57.40
21433;BME280;18592;49.708;10.900;2023-02-14T06:11:23;100612.28;;;6.18;57.60
21433;BME280;18592;49.708;10.900;2023-02-14T06:13:25;100604.34;;;6.16;57.96
21433;BME280;18592;49.708;10.900;2023-02-14T06:15:27;100603.31;;;6.17;57.71
21433;BME280;18592;49.708;10.900;2023-02-14T06:17:31;100602.50;;;6.17;57.76
21433;BME280;18592;49.708;10.900;2023-02-14T06:19:33;100614.50;;;6.14;57.82
21433;BME280;18592;49.708;10.900;2023-02-14T06:21:34;100614.31;;;6.16;57.72
21433;BME280;18592;49.708;10.900;2023-02-14T06:23:36;100608.91;;;6.16;57.99
21433;BME280;18592;49.708;10.900;2023-02-14T06:25:38;100618.72;;;6.17;57.90
21433;BME280;18592;49.708;10.900;2023-02-14T06:27:39;100617.03;;;6.16;58.00
21433;BME280;18592;49.708;10.900;2023-02-14T06:29:41;100609.91;;;6.15;57.65
21433;BME280;18592;49.708;10.900;2023-02-14T06:31:43;100611.63;;;6.16;57.47
21433;BME280;18592;49.708;10.900;2023-02-14T06:33:45;100610.09;;;6.13;58.02
21433;BME280;18592;49.708;10.900;2023-02-14T06:35:49;100613.16;;;6.10;57.84
21433;BME280;18592;49.708;10.900;2023-02-14T06:37:53;100619.75;;;6.08;58.25
21433;BME280;18592;49.708;10.900;2023-02-14T06:39:55;100613.31;;;6.09;57.78
21433;BME280;18592;49.708;10.900;2023-02-14T06:41:56;100616.88;;;6.09;58.15
21433;BME280;18592;49.708;10.900;2023-02-14T06:43:58;100617.88;;;6.08;58.17
21433;BME280;18592;49.708;10.900;2023-02-14T06:46:00;100623.50;;;6.07;58.19
21433;BME280;18592;49.708;10.900;2023-02-14T06:48:02;100626.19;;;6.07;57.91
21433;BME280;18592;49.708;10.900;2023-02-14T06:50:04;100625.00;;;6.09;57.97
21433;BME280;18592;49.708;10.900;2023-02-14T06:52:06;100619.75;;;6.08;57.70
21433;BME280;18592;49.708;10.900;2023-02-14T06:54:08;100617.88;;;6.08;58.08
21433;BME280;18592;49.708;10.900;2023-02-14T06:56:10;100628.72;;;6.08;58.02
21433;BME280;18592;49.708;10.900;2023-02-14T06:58:12;100623.50;;;6.07;57.71
21433;BME280;18592;49.708;10.900;2023-02-14T07:00:14;100628.19;;;6.05;57.89
21433;BME280;18592;49.708;10.900;2023-02-14T07:02:15;100627.19;;;6.06;57.69
21433;BME280;18592;49.708;10.900;2023-02-14T07:04:17;100625.50;;;6.05;57.95
21433;BME280;18592;49.708;10.900;2023-02-14T07:06:19;100631.94;;;6.04;58.40
21433;BME280;18592;49.708;10.900;2023-02-14T07:08:21;100631.94;;;6.04;58.02
21433;BME280;18592;49.708;10.900;2023-02-14T07:10:23;100627.06;;;5.99;58.05
21433;BME280;18592;49.708;10.900;2023-02-14T07:12:24;100633.28;;;6.00;58.23
21433;BME280;18592;49.708;10.900;2023-02-14T07:14:26;100627.88;;;6.00;58.23
21433;BME280;18592;49.708;10.900;2023-02-14T07:16:27;100631.63;;;5.99;58.09
21433;BME280;18592;49.708;10.900;2023-02-14T07:18:29;100628.06;;;5.98;57.92
21433;BME280;18592;49.708;10.900;2023-02-14T07:20:34;100635.50;;;5.96;58.18
21433;BME280;18592;49.708;10.900;2023-02-14T07:22:37;100635.50;;;5.96;58.01
21433;BME280;18592;49.708;10.900;2023-02-14T07:24:38;100638.22;;;5.96;57.67
21433;BME280;18592;49.708;10.900;2023-02-14T07:26:40;100635.66;;;5.95;58.36
21433;BME280;18592;49.708;10.900;2023-02-14T07:28:46;100638.56;;;5.93;57.80
21433;BME280;18592;49.708;10.900;2023-02-14T07:30:49;100636.84;;;5.92;58.24
21433;BME280;18592;49.708;10.900;2023-02-14T07:32:51;100629.56;;;5.93;58.35
21433;BME280;18592;49.708;10.900;2023-02-14T07:34:56;100631.28;;;5.94;58.15
21433;BME280;18592;49.708;10.900;2023-02-14T07:36:57;100635.00;;;5.93;57.95
21433;BME280;18592;49.708;10.900;2023-02-14T07:38:59;100622.97;;;5.95;57.96
21433;BME280;18592;49.708;10.900;2023-02-14T07:41:01;100626.88;;;5.93;57.99
21433;BME280;18592;49.708;10.900;2023-02-14T07:43:02;100626.72;;;5.94;58.05
21433;BME280;18592;49.708;10.900;2023-02-14T07:45:04;100630.25;;;5.95;58.27
21433;BME280;18592;49.708;10.900;2023-02-14T07:47:22;100625.88;;;5.94;58.31
21433;BME280;18592;49.708;10.900;2023-02-14T07:49:26;100630.63;;;5.92;58.43
21433;BME280;18592;49.708;10.900;2023-02-14T07:51:28;100625.19;;;5.92;58.17
21433;BME280;18592;49.708;10.900;2023-02-14T07:53:44;100622.50;;;5.92;58.37
21433;BME280;18592;49.708;10.900;2023-02-14T07:55:50;100624.34;;;5.91;58.17
21433;BME280;18592;49.708;10.900;2023-02-14T07:57:51;100628.06;;;5.90;58.58
21433;BME280;18592;49.708;10.900;2023-02-14T07:59:53;100628.72;;;5.92;58.59
21433;BME280;18592;49.708;10.900;2023-02-14T08:01:55;100630.25;;;5.95;58.36
21433;BME280;18592;49.708;10.900;2023-02-14T08:03:56;100626.72;;;5.94;58.08
21433;BME280;18592;49.708;10.900;2023-02-14T08:05:58;100620.47;;;5.94;58.56
21433;BME280;18592;49.708;10.900;2023-02-14T08:08:00;100628.25;;;5.97;57.88
21433;BME280;18592;49.708;10.900;2023-02-14T08:10:02;100626.34;;;5.97;58.03
21433;BME280;18592;49.708;10.900;2023-02-14T08:12:04;100620.94;;;5.97;58.17
21433;BME280;18592;49.708;10.900;2023-02-14T08:14:24;100624.50;;;5.98;58.39
21433;BME280;18592;49.708;10.900;2023-02-14T08:16:26;100619.09;;;5.98;58.02
21433;BME280;18592;49.708;10.900;2023-02-14T08:18:28;100616.22;;;5.99;58.55
21433;BME280;18592;49.708;10.900;2023-02-14T08:20:30;100617.03;;;6.00;58.20
21433;BME280;18592;49.708;10.900;2023-02-14T08:22:32;100617.75;;;6.02;57.91
21433;BME280;18592;49.708;10.900;2023-02-14T08:24:33;100621.13;;;6.04;58.00
21433;BME280;18592;49.708;10.900;2023-02-14T08:26:35;100616.72;;;6.03;58.26
21433;BME280;18592;49.708;10.900;2023-02-14T08:28:37;100624.69;;;6.04;57.80
21433;BME280;18592;49.708;10.900;2023-02-14T08:30:39;100613.84;;;6.04;58.45
21433;BME280;18592;49.708;10.900;2023-02-14T08:32:41;100613.84;;;6.04;58.20
21433;BME280;18592;49.708;10.900;2023-02-14T08:34:43;100608.44;;;6.04;58.29
21433;BME280;18592;49.708;10.900;2023-02-14T08:36:45;100612.66;;;6.07;58.20
21433;BME280;18592;49.708;10.900;2023-02-14T08:38:48;100614.34;;;6.08;57.92
21433;BME280;18592;49.708;10.900;2023-02-14T08:40:53;100608.25;;;6.06;58.30
21433;BME280;18592;49.708;10.900;2023-02-14T08:42:54;100610.78;;;6.07;58.13
21433;BME280;18592;49.708;10.900;2023-02-14T08:44:58;100604.34;;;6.08;58.02
21433;BME280;18592;49.708;10.900;2023-02-14T08:47:00;100610.78;;;6.07;57.99
21433;BME280;18592;49.708;10.900;2023-02-14T08:49:05;100608.91;;;6.08;58.42
21433;BME280;18592;49.708;10.900;2023-02-14T08:51:15;100602.50;;;6.09;58.43
21433;BME280;18592;49.708;10.900;2023-02-14T08:53:16;100606.72;;;6.11;58.37
21433;BME280;18592;49.708;10.900;2023-02-14T08:55:21;100616.38;;;6.14;58.51
21433;BME280;18592;49.708;10.900;2023-02-14T08:57:23;100609.91;;;6.15;58.27
21433;BME280;18592;49.708;10.900;2023-02-14T08:59:25;100611.63;;;6.16;58.56
21433;BME280;18592;49.708;10.900;2023-02-14T09:01:27;100622.44;;;6.16;58.26
21433;BME280;18592;49.708;10.900;2023-02-14T09:03:29;100612.28;;;6.18;58.29
21433;BME280;18592;49.708;10.900;2023-02-14T09:05:32;100614.66;;;6.21;58.52
21433;BME280;18592;49.708;10.900;2023-02-14T09:07:34;100610.94;;;6.22;58.24
21433;BME280;18592;49.708;10.900;2023-02-14T09:09:36;100610.75;;;6.23;58.53
21433;BME280;18592;49.708;10.900;2023-02-14T09:11:38;100614.13;;;6.25;58.47
21433;BME280;18592;49.708;10.900;2023-02-14T09:13:41;100610.41;;;6.26;58.36
21433;BME280;18592;49.708;10.900;2023-02-14T09:15:43;100612.94;;;6.28;58.22
21433;BME280;18592;49.708;10.900;2023-02-14T09:17:45;100613.59;;;6.30;58.43
21433;BME280;18592;49.708;10.900;2023-02-14T09:19:47;100613.59;;;6.30;58.36
21433;BME280;18592;49.708;10.900;2023-02-14T09:21:49;100598.06;;;6.32;58.23
21433;BME280;18592;49.708;10.900;2023-02-14T09:23:51;100606.66;;;6.35;58.17
21433;BME280;18592;49.708;10.900;2023-02-14T09:26:03;100607.50;;;6.36;58.46
21433;BME280;18592;49.708;10.900;2023-02-14T09:28:05;100604.59;;;6.37;58.28
21433;BME280;18592;49.708;10.900;2023-02-14T09:30:08;100601.09;;;6.37;58.60
21433;BME280;18592;49.708;10.900;2023-02-14T09:32:10;100596.13;;;6.40;58.21
21433;BME280;18592;49.708;10.900;2023-02-14T09:34:13;100599.50;;;6.43;58.35
21433;BME280;18592;49.708;10.900;2023-02-14T09:36:15;100599.34;;;6.44;58.22
21433;BME280;18592;49.708;10.900;2023-02-14T09:38:35;100602.91;;;6.45;58.38
21433;BME280;18592;49.708;10.900;2023-02-14T09:40:41;100600.03;;;6.46;58.58
21433;BME280;18592;49.708;10.900;2023-02-14T09:45:29;100601.72;;;6.47;58.55
21433;BME280;18592;49.708;10.900;2023-02-14T09:47:41;100602.38;;;6.49;58.42
21433;BME280;18592;49.708;10.900;2023-02-14T09:49:49;100601.00;;;6.53;58.52
21433;BME280;18592;49.708;10.900;2023-02-14T09:51:53;100597.47;;;6.53;58.39
21433;BME280;18592;49.708;10.900;2023-02-14T09:53:57;100595.44;;;6.55;58.65
21433;BME280;18592;49.708;10.900;2023-02-14T09:56:06;100595.09;;;6.58;58.31
21433;BME280;18592;49.708;10.900;2023-02-14T09:58:18;100594.22;;;6.57;58.67
21433;BME280;18592;49.708;10.900;2023-02-14T10:05:49;100588.47;;;6.60;58.52
21433;BME280;18592;49.708;10.900;2023-02-14T10:08:24;100586.44;;;6.62;58.66
21433;BME280;18592;49.708;10.900;2023-02-14T10:10:41;100592.69;;;6.63;58.68
21433;BME280;18592;49.708;10.900;2023-02-14T10:12:56;100591.50;;;6.65;58.71
21433;BME280;18592;49.708;10.900;2023-02-14T10:15:11;100600.09;;;6.69;58.28
21433;BME280;18592;49.708;10.900;2023-02-14T10:17:23;100595.34;;;6.71;58.65
21433;BME280;18592;49.708;10.900;2023-02-14T10:21:58;100597.91;;;6.72;58.75
21433;BME280;18592;49.708;10.900;2023-02-14T10:24:22;100597.56;;;6.75;58.51
21433;BME280;18592;49.708;10.900;2023-02-14T10:26:37;100598.88;;;6.79;58.46
21433;BME280;18592;49.708;10.900;2023-02-14T10:28:45;100597.69;;;6.82;58.71
21433;BME280;18592;49.708;10.900;2023-02-14T10:31:19;100593.97;;;6.83;58.51
21433;BME280;18592;49.708;10.900;2023-02-14T10:33:26;100588.53;;;6.83;58.40
21433;BME280;18592;49.708;10.900;2023-02-14T10:40:32;100579.88;;;6.87;58.30
21433;BME280;18592;49.708;10.900;2023-02-14T10:45:19;100576.50;;;6.85;58.20
21433;BME280;18592;49.708;10.900;2023-02-14T10:47:45;100577.16;;;6.87;58.49
21433;BME280;18592;49.708;10.900;2023-02-14T10:49:58;100567.97;;;6.88;58.42
21433;BME280;18592;49.708;10.900;2023-02-14T10:54:25;100572.41;;;6.89;58.51
21433;BME280;18592;49.708;10.900;2023-02-14T10:56:34;100575.75;;;6.91;58.35
21433;BME280;18592;49.708;10.900;2023-02-14T10:58:38;100574.56;;;6.94;58.48
21433;BME280;18592;49.708;10.900;2023-02-14T11:00:53;100571.19;;;6.92;58.40
21433;BME280;18592;49.708;10.900;2023-02-14T11:02:58;100567.09;;;6.96;58.46
21433;BME280;18592;49.708;10.900;2023-02-14T11:07:24;100564.38;;;6.96;58.24
21433;BME280;18592;49.708;10.900;2023-02-14T11:09:27;100557.09;;;6.96;58.17
21433;BME280;18592;49.708;10.900;2023-02-14T11:11:35;100555.22;;;6.97;58.37
21433;BME280;18592;49.708;10.900;2023-02-14T11:13:39;100561.31;;;6.99;58.63
21433;BME280;18592;49.708;10.900;2023-02-14T11:15:44;100556.75;;;6.99;58.36
21433;BME280;18592;49.708;10.900;2023-02-14T11:17:47;100553.03;;;7.00;58.41
21433;BME280;18592;49.708;10.900;2023-02-14T11:19:58;100545.91;;;6.99;58.40
21433;BME280;18592;49.708;10.900;2023-02-14T11:22:04;100550.13;;;7.02;58.33
21433;BME280;18592;49.708;10.900;2023-02-14T11:24:36;100545.53;;;7.02;58.50
21433;BME280;18592;49.708;10.900;2023-02-14T11:26:44;100550.97;;;7.02;58.57
21433;BME280;18592;49.708;10.900;2023-02-14T11:29:13;100547.22;;;7.03;58.29
21433;BME280;18592;49.708;10.900;2023-02-14T11:31:36;100543.50;;;7.04;58.38
21433;BME280;18592;49.708;10.900;2023-02-14T11:33:41;100537.72;;;7.08;58.40
21433;BME280;18592;49.708;10.900;2023-02-14T11:35:49;100540.72;;;7.13;58.41
21433;BME280;18592;49.708;10.900;2023-02-14T11:37:56;100537.81;;;7.14;58.45
21433;BME280;18592;49.708;10.900;2023-02-14T11:40:00;100537.47;;;7.17;58.33
21433;BME280;18592;49.708;10.900;2023-02-14T11:42:03;100536.63;;;7.17;58.01
21433;BME280;18592;49.708;10.900;2023-02-14T11:44:13;100540.00;;;7.19;58.51
21433;BME280;18592;49.708;10.900;2023-02-14T11:48:26;100530.50;;;7.23;58.50
21433;BME280;18592;49.708;10.900;2023-02-14T11:50:40;100535.34;;;7.27;58.53
21433;BME280;18592;49.708;10.900;2023-02-14T11:53:10;100532.44;;;7.29;58.60
21433;BME280;18592;49.708;10.900;2023-02-14T11:55:27;100530.44;;;7.31;58.49
21433;BME280;18592;49.708;10.900;2023-02-14T11:57:37;100528.19;;;7.34;58.48